createdAt,value
2023-04-24T00:00:43.454Z,15.35
2023-04-24T00:05:46.870Z,12.02
2023-04-24T00:10:50.165Z,12.52
2023-04-24T00:15:54.787Z,10.23
2023-04-24T00:20:58.048Z,14.80
2023-04-24T00:26:01.296Z,13.57
2023-04-24T00:31:06.208Z,12.20
2023-04-24T00:36:09.858Z,9.77
2023-04-24T00:41:13.681Z,9.27
2023-04-24T00:46:19.281Z,13.67
2023-04-24T00:51:22.695Z,14.00
2023-04-24T00:56:26.169Z,13.20
2023-04-24T01:01:31.658Z,8.90
2023-04-24T01:06:35.925Z,12.65
2023-04-24T01:11:39.752Z,15.93
2023-04-24T01:16:44.548Z,10.82
2023-04-24T01:26:54.464Z,14.05
2023-04-24T01:37:03.349Z,40.03
2023-04-24T01:42:09.448Z,70.70
2023-04-24T01:47:13.059Z,9.43
2023-04-24T01:52:16.288Z,10.60
2023-04-24T01:57:21.115Z,9.35
2023-04-24T02:07:28.722Z,8.23
2023-04-24T02:12:33.402Z,7.30
2023-04-24T02:17:36.708Z,5.93
2023-04-24T02:22:40.051Z,6.68
2023-04-24T02:27:44.710Z,4.90
2023-04-24T02:32:47.939Z,4.90
2023-04-24T02:37:51.346Z,6.47
2023-04-24T02:42:56.025Z,6.88
2023-04-24T02:47:59.294Z,5.68
2023-04-24T02:53:02.700Z,8.30
2023-04-24T02:58:07.351Z,4.70
2023-04-24T03:03:10.852Z,6.57
2023-04-24T03:08:15.788Z,5.88
2023-04-24T03:13:20.479Z,6.63
2023-04-24T03:18:23.619Z,5.82
2023-04-24T03:23:26.941Z,5.72
2023-04-24T03:28:31.603Z,6.32
2023-04-24T03:33:34.815Z,7.95
2023-04-24T03:38:38.107Z,9.70
2023-04-24T03:43:42.779Z,5.65
2023-04-24T03:48:46.183Z,8.60
2023-04-24T03:53:49.542Z,7.25
2023-04-24T03:58:54.189Z,4.80
2023-04-24T04:03:57.595Z,7.35
2023-04-24T04:09:01.488Z,5.30
2023-04-24T04:14:06.465Z,5.20
2023-04-24T04:19:09.749Z,6.35
2023-04-24T04:24:13.092Z,6.50
2023-04-24T04:29:18.722Z,8.88
2023-04-24T04:34:22.366Z,4.50
2023-04-24T04:39:25.680Z,5.18
2023-04-24T04:44:31.871Z,6.75
2023-04-24T04:49:35.939Z,4.47
2023-04-24T04:54:39.214Z,8.47
2023-04-24T04:59:44.128Z,7.47
2023-04-24T05:04:47.845Z,7.68
2023-04-24T05:09:52.652Z,9.13
2023-04-24T05:14:57.259Z,9.40
2023-04-24T05:20:00.483Z,8.02
2023-04-24T05:25:03.976Z,6.68
2023-04-24T05:30:10.746Z,7.57
2023-04-24T05:35:14.224Z,7.80
2023-04-24T05:40:17.536Z,8.25
2023-04-24T05:45:22.227Z,7.47
2023-04-24T05:50:25.802Z,6.38
2023-04-24T05:55:29.397Z,7.05
2023-04-24T06:00:35.031Z,5.50
2023-04-24T06:05:38.549Z,8.27
2023-04-24T06:10:42.494Z,8.25
2023-04-24T06:15:47.572Z,6.93
2023-04-24T06:20:51.043Z,7.60
2023-04-24T06:26:00.451Z,9.05
2023-04-24T06:31:05.386Z,8.43
2023-04-24T06:36:09.371Z,38.38
2023-04-24T06:41:12.586Z,6.13
2023-04-24T06:46:17.797Z,6.38
2023-04-24T06:51:21.298Z,4.72
2023-04-24T06:56:24.872Z,5.72
2023-04-24T10:45:18.381Z,12.68
2023-04-24T10:50:22.045Z,11.98
2023-04-24T10:55:49.935Z,17.53
2023-04-24T11:01:00.355Z,16.45
2023-04-24T11:06:05.371Z,16.30
2023-04-24T11:11:13.205Z,14.02
2023-04-24T11:16:23.711Z,16.38
2023-04-24T11:21:27.428Z,12.85
2023-04-24T11:26:33.649Z,14.32
2023-04-24T11:31:39.617Z,11.20
2023-04-24T11:36:45.588Z,15.95
2023-04-24T11:41:49.218Z,14.65
2023-04-24T11:46:53.921Z,16.38
2023-04-24T11:51:59.715Z,16.77
2023-04-24T11:57:08.206Z,11.98
2023-04-24T12:02:23.010Z,20.23
2023-04-24T12:07:26.664Z,24.50
2023-04-24T12:12:30.564Z,11.27
2023-04-24T12:17:37.681Z,8.73
2023-04-24T12:22:48.225Z,7.35
2023-04-24T12:27:55.948Z,6.60
2023-04-24T12:33:02.576Z,7.65
2023-04-24T12:38:09.451Z,5.55
2023-04-24T12:43:17.640Z,7.07
2023-04-24T12:48:23.441Z,6.43
2023-04-24T12:53:27.778Z,10.55
2023-04-24T12:58:30.958Z,7.65
2023-04-24T13:03:35.688Z,7.13
2023-04-24T13:08:38.941Z,5.20
2023-04-24T13:13:42.376Z,5.20
2023-04-24T13:18:47.030Z,8.32
2023-04-24T13:23:50.676Z,6.40
2023-04-24T13:28:53.770Z,7.43
2023-04-24T13:33:58.391Z,5.22
2023-04-24T13:39:01.573Z,6.50
2023-04-24T13:44:05.096Z,8.20
2023-04-24T13:49:09.751Z,8.02
2023-04-24T13:54:13.059Z,7.43
2023-04-24T13:59:21.245Z,5.97
2023-04-24T14:04:26.031Z,7.57
2023-04-24T14:09:29.397Z,7.05
2023-04-24T14:14:32.662Z,5.27
2023-04-24T14:19:37.198Z,7.20
2023-04-24T14:24:40.349Z,6.07
2023-04-24T14:29:43.456Z,5.67
2023-04-24T14:34:47.986Z,6.33
2023-04-24T14:40:04.629Z,5.25
2023-04-24T14:45:14.245Z,5.80
2023-04-24T14:50:19.144Z,6.17
2023-04-24T14:55:22.370Z,8.18
2023-04-24T15:00:25.930Z,4.17
2023-04-24T15:05:31.566Z,10.63
2023-04-24T15:10:35.244Z,7.15
2023-04-24T15:15:38.397Z,6.38
2023-04-24T15:20:43.491Z,4.47
2023-04-24T15:25:46.682Z,6.75
2023-04-24T15:30:49.845Z,5.33
2023-04-24T15:35:54.602Z,4.07
2023-04-24T15:40:57.798Z,5.13
2023-04-24T15:46:01.027Z,6.00
2023-04-24T15:51:05.633Z,6.17
2023-04-24T15:56:08.945Z,6.15
2023-04-24T16:01:12.144Z,6.63
2023-04-24T16:06:17.033Z,6.33
2023-04-24T16:11:20.547Z,5.03
2023-04-24T16:16:24.557Z,7.40
2023-04-24T16:26:32.101Z,7.37
2023-04-24T16:31:35.280Z,9.38
2023-04-24T16:36:39.920Z,7.13
2023-04-24T16:41:43.128Z,7.18
2023-04-24T16:46:46.304Z,5.72
2023-04-24T16:51:50.976Z,8.33
2023-04-24T16:56:54.357Z,5.85
2023-04-24T17:01:57.515Z,7.97
2023-04-24T17:07:02.249Z,6.80
2023-04-24T17:12:05.757Z,6.10
2023-04-24T17:17:09.057Z,7.03
2023-04-24T17:22:13.661Z,4.65
2023-04-24T17:27:16.874Z,8.07
2023-04-24T17:32:20.384Z,8.10
2023-04-24T17:37:25.440Z,4.80
2023-04-24T17:42:28.712Z,8.00
2023-04-24T17:47:31.867Z,10.02
2023-04-24T17:52:36.699Z,62.45
2023-04-24T17:57:39.933Z,677.05
2023-04-24T18:02:43.326Z,1149.75
2023-04-24T18:07:48.011Z,1087.57
2023-04-24T18:12:52.200Z,28.98
2023-04-24T18:17:55.649Z,14.50
2023-04-24T18:23:02.291Z,597.47
2023-04-24T18:28:06.704Z,745.85
2023-04-24T18:33:10.008Z,230.68
2023-04-24T18:38:14.751Z,844.92
2023-04-24T18:43:18.217Z,1759.75
2023-04-24T18:48:21.584Z,519.17
2023-04-24T18:53:26.245Z,353.48
2023-04-24T18:58:29.427Z,772.22
2023-04-24T19:03:32.903Z,69.80
2023-04-24T19:08:38.784Z,77.30
2023-04-24T19:13:42.150Z,41.47
2023-04-24T19:18:45.496Z,32.00
2023-04-24T19:23:50.727Z,27.63
2023-04-24T19:28:57.803Z,22.15
2023-04-24T19:34:01.034Z,25.25
2023-04-24T19:39:05.837Z,21.02
2023-04-24T19:44:09.148Z,14.43
2023-04-24T19:49:13.423Z,18.58
2023-04-24T19:54:20.243Z,17.80
2023-04-24T19:59:23.520Z,14.93
2023-04-24T20:04:27.065Z,14.40
2023-04-24T20:09:33.021Z,13.03
2023-04-24T20:14:36.342Z,14.02
2023-04-24T20:19:41.212Z,17.73
2023-04-24T20:24:46.137Z,15.15
2023-04-24T20:29:49.634Z,12.82
2023-04-24T20:34:52.919Z,12.40
2023-04-24T20:39:58.549Z,16.45
2023-04-24T20:45:02.057Z,18.83
2023-04-24T20:50:06.580Z,17.15
2023-04-24T21:00:16.258Z,14.77
2023-04-24T21:17:49.319Z,17.17
2023-04-24T21:23:01.759Z,14.35
2023-04-24T21:28:05.634Z,14.52
2023-04-24T21:33:10.370Z,15.83
2023-04-24T21:38:19.946Z,15.70
2023-04-24T21:43:37.196Z,16.13
2023-04-24T21:48:42.042Z,17.55
2023-04-24T21:58:48.606Z,18.17
2023-04-24T22:03:53.754Z,17.90
2023-04-24T22:08:57.451Z,18.63
2023-04-24T22:14:00.732Z,15.98
2023-04-24T22:19:05.579Z,15.98
2023-04-24T22:24:09.156Z,14.02
2023-04-24T22:29:13.037Z,15.88
2023-04-24T22:34:18.656Z,17.17
2023-04-24T22:39:21.983Z,12.02
2023-04-24T22:44:25.243Z,17.60
2023-04-24T22:49:30.329Z,15.63
2023-04-24T22:54:34.959Z,18.30
2023-04-24T22:59:38.225Z,15.73
2023-04-24T23:04:42.887Z,13.57
2023-04-24T23:14:49.188Z,14.32
2023-04-24T23:19:53.779Z,13.38
2023-04-24T23:24:57.084Z,15.02
2023-04-24T23:30:00.329Z,13.75
2023-04-24T23:35:05.079Z,13.93
2023-04-24T23:45:13.624Z,16.88
2023-04-24T23:50:18.278Z,13.98
